Time;durP1;ratioP1;P1;durP2;ratioP2;P2;SDS_P1;SDS_P2;PMS_P1;PMS_P2;Temp;Humidity;BMP_temperature;BMP_pressure;BME280_temperature;BME280_humidity;BME280_pressure;Samples;Min_cycle;Max_cycle;Signal;HPM_P1;HPM_P2
2022/05/26 00:01:23;;;;;;;0.50;0.50;;;;;;;6.07;75.89;98720.91;4954727;28;20083;-89
2022/05/26 00:03:51;;;;;;;0.57;0.57;;;;;;;5.93;76.21;98706.00;4958944;28;20048;-88
2022/05/26 00:06:21;;;;;;;0.60;0.60;;;;;;;5.76;76.67;98705.75;4938126;29;20143;-89
2022/05/26 00:08:49;;;;;;;0.57;0.57;;;;;;;5.71;77.37;98711.75;4935584;29;20107;-89
2022/05/26 00:11:19;;;;;;;0.60;0.60;;;;;;;5.53;77.76;98696.47;4935768;29;20064;-89
2022/05/26 00:13:47;;;;;;;0.60;0.60;;;;;;;5.60;77.58;98686.53;4941932;29;20055;-88
2022/05/26 00:16:14;;;;;;;0.60;0.60;;;;;;;5.63;77.47;98699.47;4941507;29;20052;-88
2022/05/26 00:18:42;;;;;;;0.50;0.50;;;;;;;5.66;77.55;98703.56;4941818;29;20063;-89
2022/05/26 00:21:09;;;;;;;0.50;0.50;;;;;;;5.63;77.71;98712.03;4933456;29;20499;-89
2022/05/26 00:23:36;;;;;;;0.60;0.60;;;;;;;5.40;77.69;98675.19;4927028;29;20056;-86
2022/05/26 00:26:03;;;;;;;0.50;0.50;;;;;;;5.39;77.59;98684.22;4922906;29;20047;-89
2022/05/26 00:28:31;;;;;;;0.52;0.52;;;;;;;5.49;78.04;98692.56;4916384;29;20055;-87
2022/05/26 00:30:59;;;;;;;0.52;0.52;;;;;;;5.50;77.59;98685.38;4917139;29;20639;-89
2022/05/26 00:33:27;;;;;;;0.60;0.60;;;;;;;5.48;77.08;98684.78;4934968;29;20056;-89
2022/05/26 00:35:54;;;;;;;0.60;0.60;;;;;;;5.24;77.83;98665.00;4920349;29;20060;-88
2022/05/26 00:38:21;;;;;;;0.50;0.50;;;;;;;5.27;78.09;98672.63;4919754;29;20087;-89
2022/05/26 00:40:48;;;;;;;0.60;0.60;;;;;;;5.16;77.97;98663.41;4916552;29;20571;-89
2022/05/26 00:43:15;;;;;;;0.60;0.60;;;;;;;5.34;77.77;98678.72;4915287;29;20052;-89
2022/05/26 00:46:06;;;;;;;0.60;0.60;;;;;;;5.44;77.52;98668.31;4915210;29;20059;-89
2022/05/26 00:48:42;;;;;;;0.50;0.50;;;;;;;5.40;77.27;98672.50;4915467;29;20468;-87
2022/05/26 00:51:10;;;;;;;0.60;0.60;;;;;;;5.30;77.23;98656.13;4913766;29;20431;-89
2022/05/26 00:53:42;;;;;;;0.50;0.50;;;;;;;5.45;76.64;98669.97;4914313;29;20056;-89
2022/05/26 00:56:17;;;;;;;0.50;0.50;;;;;;;5.46;76.62;98668.94;4915078;29;20056;-89
2022/05/26 00:58:48;;;;;;;0.50;0.50;;;;;;;5.40;76.60;98670.63;4915422;29;20056;-88
2022/05/26 01:01:17;;;;;;;0.50;0.50;;;;;;;5.27;77.33;98643.19;4898494;29;20479;-90
2022/05/26 01:03:57;;;;;;;0.50;0.50;;;;;;;5.35;77.16;98661.63;4915427;29;20090;-89
2022/05/26 01:06:34;;;;;;;0.60;0.60;;;;;;;5.24;76.86;98633.75;4914441;29;20060;-89
2022/05/26 01:09:04;;;;;;;0.50;0.50;;;;;;;5.47;76.04;98646.50;4914282;29;20079;-89
2022/05/26 01:11:36;;;;;;;0.50;0.50;;;;;;;5.48;76.20;98650.81;4915600;29;20538;-89
2022/05/26 01:14:18;;;;;;;0.60;0.60;;;;;;;5.53;75.65;98642.94;4932588;29;20032;-88
2022/05/26 01:17:10;;;;;;;0.50;0.50;;;;;;;5.52;75.51;98640.47;4939067;29;20138;-88
2022/05/26 01:20:01;;;;;;;0.60;0.60;;;;;;;5.51;75.30;98645.00;4926639;29;20087;-88
2022/05/26 01:22:47;;;;;;;0.60;0.60;;;;;;;5.68;74.23;98639.91;4915287;29;20090;-90
2022/05/26 01:25:20;;;;;;;0.60;0.60;;;;;;;5.80;72.82;98634.63;4916137;29;20542;-88
2022/05/26 01:28:06;;;;;;;0.50;0.50;;;;;;;5.81;72.26;98617.53;4920981;29;20538;-88
2022/05/26 01:30:53;;;;;;;;;;;;;;;5.85;72.17;98632.94;4926567;29;20068;-87
2022/05/26 01:33:26;;;;;;;0.60;0.60;;;;;;;5.74;72.56;98622.13;4921976;29;19934;-88
2022/05/26 01:36:20;;;;;;;0.50;0.50;;;;;;;5.82;72.83;98627.19;4905323;29;20056;-88
2022/05/26 01:38:59;;;;;;;0.52;0.52;;;;;;;5.85;72.73;98632.13;4918063;29;20055;-88
2022/05/26 01:42:17;;;;;;;0.57;0.57;;;;;;;5.80;72.68;98614.03;4922913;29;20056;-90
2022/05/26 01:44:50;;;;;;;0.60;0.60;;;;;;;6.03;71.04;98625.97;4890595;29;20052;-90
2022/05/26 01:47:26;;;;;;;0.52;0.52;;;;;;;6.14;70.70;98621.72;4918996;29;20056;-87
2022/05/26 01:50:11;;;;;;;0.60;0.60;;;;;;;6.18;70.32;98621.03;4918380;29;20056;-89
2022/05/26 01:52:49;;;;;;;0.60;0.60;;;;;;;6.23;69.77;98631.09;4917343;29;20056;-89
2022/05/26 01:55:19;;;;;;;0.50;0.50;;;;;;;6.28;69.73;98633.91;4918440;29;20052;-89
2022/05/26 01:57:51;;;;;;;0.52;0.52;;;;;;;6.32;69.28;98615.50;4917545;29;20080;-89
2022/05/26 02:00:19;;;;;;;0.60;0.60;;;;;;;6.31;69.28;98608.50;4922978;29;20059;-87
2022/05/26 02:02:56;;;;;;;0.60;0.60;;;;;;;6.39;69.37;98613.56;4924565;29;20068;-88
2022/05/26 02:05:27;;;;;;;0.50;0.50;;;;;;;6.24;69.16;98606.72;4923245;29;20056;-89
2022/05/26 02:08:06;;;;;;;0.50;0.50;;;;;;;6.39;69.16;98616.25;4919262;29;20063;-91
2022/05/26 02:10:43;;;;;;;0.60;0.60;;;;;;;6.37;69.27;98623.69;4918461;29;20056;-89
2022/05/26 02:13:14;;;;;;;0.60;0.60;;;;;;;6.26;69.49;98596.59;4901129;29;20044;-91
2022/05/26 02:15:47;;;;;;;0.50;0.50;;;;;;;6.25;69.38;98591.47;4917002;29;20126;-91
2022/05/26 02:18:28;;;;;;;0.50;0.50;;;;;;;6.46;69.13;98609.75;4916404;29;20058;-89
2022/05/26 02:21:03;;;;;;;0.60;0.60;;;;;;;6.31;69.42;98579.84;4916647;29;20059;-90
2022/05/26 02:23:32;;;;;;;0.50;0.50;;;;;;;6.52;68.99;98608.00;4917117;29;20135;-90
2022/05/26 02:26:05;;;;;;;0.50;0.50;;;;;;;6.48;68.56;98586.22;4917102;29;20052;-90
2022/05/26 02:29:51;;;;;;;0.55;0.55;;;;;;;6.69;68.17;98597.47;4933397;29;20048;-90
2022/05/26 02:31:24;;;;;;;0.60;0.60;;;;;;;6.75;67.97;98606.44;4918095;29;20154;-90
2022/05/26 02:33:55;;;;;;;0.50;0.50;;;;;;;6.77;67.93;98607.84;4902548;29;20401;-90
2022/05/26 02:36:24;;;;;;;0.60;0.60;;;;;;;6.82;67.75;98602.63;4924018;29;20060;-88
2022/05/26 02:38:51;;;;;;;0.50;0.50;;;;;;;6.90;67.38;98594.22;4924930;29;20048;-90
2022/05/26 02:41:18;;;;;;;0.50;0.50;;;;;;;7.09;66.93;98594.13;4918135;29;20146;-90
2022/05/26 02:43:46;;;;;;;0.60;0.60;;;;;;;7.23;66.61;98597.41;4919074;29;20048;-89
2022/05/26 02:46:52;;;;;;;0.60;0.60;;;;;;;7.30;66.32;98598.94;4916999;29;20052;-90
2022/05/26 02:49:31;;;;;;;0.50;0.50;;;;;;;7.38;65.86;98600.47;4902639;29;20052;-88
2022/05/26 02:52:02;;;;;;;0.50;0.50;;;;;;;7.38;66.07;98595.91;4901044;29;20079;-90
2022/05/26 02:54:32;;;;;;;0.50;0.50;;;;;;;7.50;65.29;98592.41;4916531;29;20103;-88
2022/05/26 02:57:12;;;;;;;0.60;0.60;;;;;;;7.62;65.13;98585.13;4917155;29;20052;-89
2022/05/26 02:59:48;;;;;;;0.50;0.50;;;;;;;7.63;64.84;98575.25;4918182;29;20063;-89
2022/05/26 03:02:35;;;;;;;0.50;0.50;;;;;;;7.60;64.71;98560.41;4918827;29;20056;-89
2022/05/26 03:05:17;;;;;;;0.52;0.52;;;;;;;7.75;64.78;98579.53;4916441;29;20051;-89
2022/05/26 03:07:49;;;;;;;0.50;0.50;;;;;;;7.51;64.85;98545.69;4916366;29;20591;-89
2022/05/26 03:10:17;;;;;;;0.55;0.55;;;;;;;7.49;64.98;98553.16;4917244;29;20058;-90
2022/05/26 03:12:44;;;;;;;0.60;0.60;;;;;;;7.52;65.26;98558.91;4917059;29;20459;-89
2022/05/26 03:15:14;;;;;;;0.50;0.50;;;;;;;7.74;64.99;98560.97;4917505;29;20067;-91
2022/05/26 03:17:41;;;;;;;0.50;0.50;;;;;;;7.73;64.92;98565.53;4917828;29;20135;-89
2022/05/26 03:20:09;;;;;;;0.60;0.60;;;;;;;7.71;64.82;98564.94;4922623;29;20044;-89
2022/05/26 03:22:36;;;;;;;0.60;0.60;;;;;;;7.70;64.60;98547.19;4923109;29;20090;-89
2022/05/26 03:25:05;;;;;;;0.60;0.60;;;;;;;7.91;63.76;98558.34;4918642;29;20048;-90
2022/05/26 03:27:33;;;;;;;0.60;0.60;;;;;;;7.98;63.69;98540.22;4915620;29;20059;-89
2022/05/26 03:30:00;;;;;;;0.60;0.60;;;;;;;8.09;63.66;98538.56;4916976;29;20503;-88
2022/05/26 03:32:29;;;;;;;0.55;0.55;;;;;;;8.21;63.43;98550.06;4928159;29;20106;-92
2022/05/26 03:40:57;;;;;;;0.50;0.50;;;;;;;8.43;63.25;98539.47;4945619;28;20035;-88
2022/05/26 03:43:31;;;;;;;0.60;0.60;;;;;;;8.30;63.20;98507.47;4939386;29;20091;-94
2022/05/26 03:45:59;;;;;;;0.60;0.60;;;;;;;8.48;62.83;98528.78;4937315;29;20048;-92
2022/05/26 03:48:27;;;;;;;0.50;0.50;;;;;;;8.63;62.78;98534.47;4931771;29;20437;-92
2022/05/26 03:50:55;;;;;;;0.50;0.50;;;;;;;8.64;62.19;98527.22;4917745;29;20056;-92
2022/05/26 03:53:24;;;;;;;0.50;0.50;;;;;;;8.74;61.92;98529.25;4928486;29;20142;-95
2022/05/26 03:55:51;;;;;;;0.50;0.50;;;;;;;8.80;61.71;98514.81;4938238;29;20114;-94
2022/05/26 03:58:20;;;;;;;0.60;0.60;;;;;;;8.70;61.75;98498.50;4935944;29;20047;-92
2022/05/26 04:00:48;;;;;;;0.50;0.50;;;;;;;8.76;61.69;98525.25;4885147;29;20059;-92
2022/05/26 04:03:15;;;;;;;0.50;0.50;;;;;;;8.61;61.80;98525.81;4916247;29;20164;-93
2022/05/26 04:05:42;;;;;;;0.50;0.50;;;;;;;8.44;62.20;98516.91;4578627;28;10000364;-89
2022/05/26 04:08:10;;;;;;;0.50;0.50;;;;;;;8.40;62.17;98513.88;4924308;29;20048;-89
2022/05/26 04:10:38;;;;;;;0.50;0.50;;;;;;;8.27;62.81;98499.91;4927453;29;20106;-87
2022/05/26 04:13:05;;;;;;;0.50;0.50;;;;;;;8.33;62.92;98513.22;4916893;29;20056;-86
2022/05/26 04:15:37;;;;;;;0.50;0.50;;;;;;;8.42;62.49;98519.03;4919649;29;20142;-87
2022/05/26 04:18:04;;;;;;;0.40;0.40;;;;;;;8.39;62.47;98501.50;4913616;29;20060;-87
2022/05/26 04:20:31;;;;;;;0.50;0.50;;;;;;;8.52;62.37;98503.06;4904520;29;20044;-88
2022/05/26 04:22:58;;;;;;;0.50;0.50;;;;;;;8.59;62.06;98492.97;4919157;29;20074;-83
2022/05/26 04:25:26;;;;;;;0.50;0.50;;;;;;;8.71;62.19;98498.28;4927909;29;20060;-89
2022/05/26 04:27:53;;;;;;;0.50;0.50;;;;;;;8.78;61.56;98477.38;4922575;29;20052;-86
2022/05/26 04:30:22;;;;;;;0.50;0.50;;;;;;;9.01;61.32;98487.13;4920448;29;20056;-90
2022/05/26 04:32:50;;;;;;;0.50;0.50;;;;;;;8.96;61.40;98465.53;4926269;29;20059;-88
2022/05/26 04:35:18;;;;;;;0.50;0.50;;;;;;;9.31;61.07;98492.13;4935101;29;20055;-87
2022/05/26 04:37:45;;;;;;;0.50;0.50;;;;;;;9.43;60.44;98481.28;4910062;29;20479;-88
2022/05/26 04:40:13;;;;;;;0.50;0.50;;;;;;;9.49;59.31;98468.66;4908866;29;20142;-90
2022/05/26 04:42:40;;;;;;;0.50;0.50;;;;;;;9.70;58.79;98486.72;4927464;29;20056;-89
2022/05/26 04:45:11;;;;;;;0.50;0.50;;;;;;;9.75;58.58;98467.13;4927322;29;20111;-89
2022/05/26 04:47:38;;;;;;;0.50;0.50;;;;;;;9.90;57.89;98467.28;4930168;29;20048;-89
2022/05/26 04:50:06;;;;;;;0.50;0.50;;;;;;;9.97;57.25;98453.59;4915666;29;20059;-89
2022/05/26 04:52:33;;;;;;;0.50;0.50;;;;;;;10.12;56.67;98469.91;4916611;29;20044;-87
2022/05/26 04:55:00;;;;;;;0.50;0.50;;;;;;;10.16;56.67;98454.88;4918517;29;20118;-89
2022/05/26 04:57:28;;;;;;;0.50;0.50;;;;;;;10.33;56.57;98468.28;4914137;29;20104;-88
2022/05/26 04:59:56;;;;;;;0.50;0.50;;;;;;;10.51;55.67;98463.59;4919821;29;20511;-89
2022/05/26 05:02:23;;;;;;;0.50;0.50;;;;;;;10.54;55.64;98463.88;4921598;29;20052;-89
2022/05/26 05:04:51;;;;;;;0.50;0.50;;;;;;;10.72;56.09;98456.44;4922218;29;20099;-88
2022/05/26 05:07:19;;;;;;;0.43;0.43;;;;;;;10.97;56.03;98456.63;4925689;29;20056;-89
2022/05/26 05:09:47;;;;;;;0.50;0.50;;;;;;;10.99;55.54;98440.97;4927997;29;20107;-88
2022/05/26 05:12:18;;;;;;;0.50;0.50;;;;;;;11.07;54.46;98456.69;4929941;29;20142;-90
2022/05/26 05:14:48;;;;;;;0.50;0.50;;;;;;;11.04;54.16;98459.09;4922227;29;20079;-89
2022/05/26 05:17:17;;;;;;;0.50;0.50;;;;;;;11.12;54.31;98469.41;4902614;29;20051;-89
2022/05/26 05:19:45;;;;;;;0.50;0.50;;;;;;;11.20;53.93;98473.50;4926600;29;20059;-90
2022/05/26 05:22:23;;;;;;;0.50;0.50;;;;;;;11.06;53.81;98459.63;4926357;29;20455;-89
2022/05/26 05:24:56;;;;;;;0.50;0.50;;;;;;;11.09;54.16;98467.25;4909675;29;20055;-88
2022/05/26 05:27:30;;;;;;;0.50;0.50;;;;;;;11.09;54.44;98475.34;4923785;29;20044;-88
2022/05/26 05:30:00;;;;;;;0.50;0.50;;;;;;;11.09;54.63;98469.94;4937163;29;20048;-88
2022/05/26 05:32:47;;;;;;;0.50;0.50;;;;;;;11.14;54.22;98452.94;4924883;29;20064;-89
2022/05/26 05:35:24;;;;;;;0.50;0.50;;;;;;;11.19;54.36;98452.97;4932258;29;20458;-90
2022/05/26 05:37:52;;;;;;;0.47;0.47;;;;;;;11.31;54.37;98458.97;4915950;29;20090;-88
2022/05/26 05:40:19;;;;;;;0.50;0.50;;;;;;;11.49;54.12;98452.28;4580423;29;10000903;-91
2022/05/26 05:42:47;;;;;;;0.50;0.50;;;;;;;11.77;53.38;98459.16;4927364;29;20056;-89
2022/05/26 05:45:20;;;;;;;0.50;0.50;;;;;;;11.93;53.73;98451.94;4924458;29;20048;-90
2022/05/26 05:47:49;;;;;;;0.50;0.50;;;;;;;12.04;53.41;98441.97;4918738;29;20111;-89
2022/05/26 05:50:16;;;;;;;0.50;0.50;;;;;;;12.01;53.32;98431.69;4916789;29;20051;-90
2022/05/26 05:52:43;;;;;;;0.50;0.50;;;;;;;12.36;52.88;98455.28;4905414;29;20067;-92
2022/05/26 05:55:22;;;;;;;0.50;0.50;;;;;;;12.46;52.37;98436.34;4904744;29;20052;-95
2022/05/26 05:57:52;;;;;;;0.50;0.50;;;;;;;12.51;51.96;98447.16;4936825;29;20048;-89
2022/05/26 06:00:20;;;;;;;0.50;0.50;;;;;;;12.35;52.00;98437.41;4934783;29;20444;-88
2022/05/26 06:02:52;;;;;;;0.50;0.50;;;;;;;12.49;51.63;98441.19;4935371;29;20048;-89
2022/05/26 06:05:19;;;;;;;0.50;0.50;;;;;;;12.62;52.28;98441.75;4928667;29;20052;-86
2022/05/26 06:07:46;;;;;;;0.50;0.50;;;;;;;12.79;51.81;98444.97;4929789;29;20056;-84
2022/05/26 06:10:14;;;;;;;0.50;0.50;;;;;;;12.94;51.65;98436.84;4937687;29;20090;-89
2022/05/26 06:12:41;;;;;;;0.40;0.40;;;;;;;13.09;51.25;98432.44;4939438;29;20056;-90
2022/05/26 06:15:08;;;;;;;0.50;0.50;;;;;;;13.18;50.84;98418.06;4934902;29;20052;-88
2022/05/26 06:17:36;;;;;;;0.43;0.43;;;;;;;13.39;50.34;98440.56;4928183;29;20052;-89
2022/05/26 06:20:05;;;;;;;0.50;0.50;;;;;;;13.39;49.58;98431.59;4923236;29;20048;-86
2022/05/26 06:22:35;;;;;;;0.50;0.50;;;;;;;13.53;49.37;98435.34;4928722;29;20048;-90
2022/05/26 06:25:03;;;;;;;0.50;0.50;;;;;;;13.64;49.26;98434.19;4925637;29;20151;-87
2022/05/26 06:30:20;;;;;;;0.50;0.50;;;;;;;14.09;49.18;98426.88;4914784;29;20138;-87
2022/05/26 06:38:35;;;;;;;0.50;0.50;;;;;;;14.16;47.82;98415.72;4925525;29;20043;-84
2022/05/26 06:43:49;;;;;;;0.50;0.50;;;;;;;14.27;48.22;98400.16;4920000;29;20143;-85
2022/05/26 06:46:18;;;;;;;0.40;0.40;;;;;;;14.23;48.54;98407.25;4915807;29;20075;-87
2022/05/26 06:48:46;;;;;;;0.40;0.40;;;;;;;14.51;48.61;98409.22;4926018;29;20056;-85
2022/05/26 06:51:13;;;;;;;0.40;0.40;;;;;;;14.71;47.66;98408.25;4924358;29;20143;-86
2022/05/26 06:53:40;;;;;;;0.40;0.40;;;;;;;14.82;47.92;98391.84;4916593;29;20136;-86
2022/05/26 06:56:07;;;;;;;0.40;0.40;;;;;;;15.10;46.53;98401.88;4925628;29;20086;-86
2022/05/26 06:58:34;;;;;;;0.40;0.40;;;;;;;14.85;46.44;98389.38;4933612;29;20052;-87
2022/05/26 07:01:02;;;;;;;0.45;0.45;;;;;;;14.89;46.75;98395.84;4918485;29;20074;-87
2022/05/26 07:03:29;;;;;;;0.50;0.50;;;;;;;15.13;45.71;98389.63;4922225;29;20674;-86
2022/05/26 07:05:56;;;;;;;0.40;0.40;;;;;;;15.05;45.42;98361.16;4915210;29;20124;-88
2022/05/26 07:08:24;;;;;;;0.43;0.43;;;;;;;15.17;45.39;98379.78;4921795;29;20594;-88
2022/05/26 07:10:54;;;;;;;0.40;0.40;;;;;;;15.31;45.09;98379.88;4920710;29;20044;-86
2022/05/26 07:13:23;;;;;;;0.50;0.50;;;;;;;15.66;44.13;98377.81;4914780;29;20044;-87
2022/05/26 07:15:51;;;;;;;0.40;0.40;;;;;;;15.97;44.26;98370.03;4919605;29;20167;-85
2022/05/26 07:18:19;;;;;;;0.47;0.47;;;;;;;16.19;43.64;98380.34;4929838;29;20573;-90
2022/05/26 07:20:48;;;;;;;0.40;0.40;;;;;;;16.31;42.56;98377.16;4920165;29;20058;-87
2022/05/26 07:23:16;;;;;;;0.50;0.50;;;;;;;16.42;41.73;98382.13;4924468;29;20063;-87
2022/05/26 07:25:43;;;;;;;0.40;0.40;;;;;;;16.60;42.31;98366.03;4922419;29;20098;-86
2022/05/26 07:28:13;;;;;;;0.50;0.50;;;;;;;16.79;41.00;98371.47;4935614;29;20119;-87
2022/05/26 07:30:41;;;;;;;0.45;0.45;;;;;;;16.84;39.80;98369.44;4943304;29;20068;-88
2022/05/26 07:33:09;;;;;;;0.40;0.40;;;;;;;16.53;40.08;98368.34;4922641;29;20052;-86
2022/05/26 07:35:36;;;;;;;0.40;0.40;;;;;;;16.62;39.48;98358.38;4930766;29;20052;-87
2022/05/26 07:43:37;;;;;;;0.50;0.50;;;;;;;17.53;37.86;98349.53;4914684;29;20161;-89
2022/05/26 07:46:05;;;;;;;0.40;0.40;;;;;;;17.48;37.16;98346.91;4919874;29;20044;-86
2022/05/26 07:48:32;;;;;;;0.50;0.50;;;;;;;17.61;36.80;98351.53;4913620;29;20514;-82
2022/05/26 07:50:59;;;;;;;0.60;0.60;;;;;;;17.84;36.32;98354.34;4919962;29;20062;-85
2022/05/26 07:53:26;;;;;;;0.52;0.52;;;;;;;17.77;36.11;98339.16;4927703;29;20051;-88
2022/05/26 07:55:53;;;;;;;0.50;0.50;;;;;;;17.69;36.09;98328.97;4921302;29;20043;-91
2022/05/26 07:58:20;;;;;;;0.50;0.50;;;;;;;17.87;35.93;98337.34;4918378;29;20052;-85
2022/05/26 08:00:48;;;;;;;0.50;0.50;;;;;;;17.90;35.13;98333.97;4922441;29;20118;-86
2022/05/26 08:03:15;;;;;;;0.40;0.40;;;;;;;17.62;35.55;98333.22;4926461;29;20048;-86
2022/05/26 08:05:42;;;;;;;0.40;0.40;;;;;;;17.50;35.23;98323.66;4920322;29;20056;-84
2022/05/26 08:08:09;;;;;;;0.50;0.50;;;;;;;17.51;35.09;98319.81;4929897;29;20052;-84
2022/05/26 08:10:38;;;;;;;0.50;0.50;;;;;;;17.82;34.77;98318.34;4923955;29;20095;-83
2022/05/26 08:13:06;;;;;;;0.50;0.50;;;;;;;18.08;34.73;98321.25;4919983;29;20064;-85
2022/05/26 08:15:34;;;;;;;0.40;0.40;;;;;;;18.50;34.25;98309.00;4927165;29;20055;-86
2022/05/26 08:18:02;;;;;;;0.50;0.50;;;;;;;18.79;33.80;98299.53;4926535;29;20048;-83
2022/05/26 08:20:30;;;;;;;0.40;0.40;;;;;;;18.64;33.11;98300.72;4915232;29;20127;-87
2022/05/26 08:22:57;;;;;;;0.50;0.50;;;;;;;18.35;33.43;98312.13;4913943;29;20579;-85
2022/05/26 08:25:26;;;;;;;0.60;0.60;;;;;;;18.80;32.56;98312.06;4917306;29;20084;-85
2022/05/26 08:27:53;;;;;;;0.50;0.50;;;;;;;18.97;31.76;98308.59;4924057;29;20054;-84
2022/05/26 08:30:20;;;;;;;0.60;0.60;;;;;;;18.93;31.79;98299.41;4915529;29;20044;-84
2022/05/26 08:32:52;;;;;;;0.50;0.50;;;;;;;18.91;32.03;98299.72;4915095;29;20052;-84
2022/05/26 08:35:19;;;;;;;0.40;0.40;;;;;;;19.12;31.35;98304.63;4914859;29;20060;-83
2022/05/26 08:37:46;;;;;;;0.50;0.50;;;;;;;19.14;30.98;98292.25;4926692;29;20098;-83
2022/05/26 08:40:39;;;;;;;0.60;0.60;;;;;;;19.70;30.13;98296.06;4915151;29;20107;-84
2022/05/26 08:43:12;;;;;;;0.60;0.60;;;;;;;19.75;29.59;98295.09;4898216;29;20071;-84
2022/05/26 08:45:46;;;;;;;0.50;0.50;;;;;;;19.55;29.98;98282.03;4913629;29;20099;-85
2022/05/26 08:48:31;;;;;;;0.50;0.50;;;;;;;19.68;30.57;98278.34;4916506;29;20056;-86
2022/05/26 08:50:58;;;;;;;0.60;0.60;;;;;;;20.99;28.68;98282.38;4918245;29;20106;-87
2022/05/26 08:53:30;;;;;;;0.60;0.60;;;;;;;21.53;27.80;98289.19;4917721;29;20504;-87
2022/05/26 08:55:58;;;;;;;0.60;0.60;;;;;;;21.89;27.33;98287.78;4920030;29;20060;-87
2022/05/26 08:58:52;;;;;;;0.60;0.60;;;;;;;22.39;27.23;98282.13;4922963;29;20094;-86
2022/05/26 09:01:21;;;;;;;0.50;0.50;;;;;;;22.72;26.99;98273.81;4927300;29;20498;-86
2022/05/26 09:03:48;;;;;;;0.40;0.40;;;;;;;22.69;27.11;98276.47;4929948;29;20048;-86
2022/05/26 09:06:18;;;;;;;0.50;0.50;;;;;;;22.74;26.30;98259.72;4918340;29;20139;-87
2022/05/26 09:14:41;;;;;;;0.40;0.40;;;;;;;21.31;27.30;98252.66;4929761;29;20052;-88
2022/05/26 09:17:10;;;;;;;0.32;0.32;;;;;;;21.27;27.48;98242.66;4917999;29;20713;-89
2022/05/26 09:19:41;;;;;;;0.60;0.60;;;;;;;22.06;27.01;98247.19;4910848;29;20052;-87
2022/05/26 09:22:30;;;;;;;0.50;0.50;;;;;;;23.17;25.43;98241.88;4919874;29;20138;-86
2022/05/26 09:24:58;;;;;;;0.50;0.50;;;;;;;23.07;25.03;98232.13;4918322;29;20059;-88
2022/05/26 09:27:34;;;;;;;0.55;0.55;;;;;;;23.68;24.91;98227.63;4919522;29;20404;-86
2022/05/26 09:30:22;;;;;;;0.60;0.60;;;;;;;24.56;23.46;98231.22;4918260;29;20079;-84
2022/05/26 09:32:49;;;;;;;0.60;0.60;;;;;;;24.59;22.11;98218.66;4918809;29;20499;-85
2022/05/26 09:35:19;;;;;;;0.50;0.50;;;;;;;23.72;22.98;98221.06;4932923;29;20052;-87
2022/05/26 09:37:51;;;;;;;0.60;0.60;;;;;;;22.91;23.62;98201.75;4918871;29;20068;-85
2022/05/26 09:40:35;;;;;;;0.50;0.50;;;;;;;22.88;23.85;98207.13;4917068;29;20122;-85
2022/05/26 09:43:17;;;;;;;0.50;0.50;;;;;;;23.00;23.61;98200.84;4917309;29;20147;-86
2022/05/26 09:45:50;;;;;;;0.50;0.50;;;;;;;22.90;24.03;98199.31;4922823;29;20063;-83
2022/05/26 09:48:26;;;;;;;0.60;0.60;;;;;;;23.49;23.57;98204.25;4937788;29;20093;-89
2022/05/26 09:51:13;;;;;;;0.60;0.60;;;;;;;24.67;22.66;98198.38;4917122;29;20135;-88
2022/05/26 09:53:43;;;;;;;0.50;0.50;;;;;;;25.82;22.06;98195.34;4931957;29;20066;-87
2022/05/26 09:56:27;;;;;;;0.40;0.40;;;;;;;25.69;21.60;98191.94;4916227;29;20103;-84
2022/05/26 09:58:54;;;;;;;0.60;0.60;;;;;;;25.13;22.79;98197.84;4928153;29;20063;-84
2022/05/26 10:01:28;;;;;;;0.30;0.30;;;;;;;24.48;23.25;98198.28;4929081;29;20467;-84
2022/05/26 10:04:06;;;;;;;0.30;0.30;;;;;;;23.67;23.59;98173.66;4928162;29;20051;-84
2022/05/26 10:06:41;;;;;;;0.30;0.30;;;;;;;22.64;24.59;98183.19;4925423;29;20072;-85
2022/05/26 10:09:09;;;;;;;0.30;0.30;;;;;;;22.49;25.12;98193.72;4935310;29;20107;-88
2022/05/26 10:12:03;;;;;;;0.30;0.30;;;;;;;22.30;25.84;98187.97;4933047;29;20048;-84
2022/05/26 10:14:39;;;;;;;0.30;0.30;;;;;;;22.22;25.87;98191.63;4904948;29;20055;-83
2022/05/26 10:17:18;;;;;;;0.30;0.30;;;;;;;21.94;25.88;98194.16;4921442;29;20476;-84
2022/05/26 10:20:16;;;;;;;0.30;0.30;;;;;;;22.04;26.35;98178.06;4917680;29;20067;-84
2022/05/26 10:22:49;;;;;;;0.30;0.30;;;;;;;21.46;26.49;98177.19;4917566;29;20151;-86
2022/05/26 10:25:25;;;;;;;0.30;0.30;;;;;;;21.58;26.49;98182.72;4920100;29;20556;-85
2022/05/26 10:28:04;;;;;;;0.30;0.30;;;;;;;21.79;26.75;98176.38;4930231;29;20048;-88
2022/05/26 10:30:42;;;;;;;0.30;0.30;;;;;;;21.91;27.41;98168.19;4927032;29;20107;-85
2022/05/26 10:33:22;;;;;;;0.30;0.30;;;;;;;22.22;26.49;98175.13;4917078;29;20071;-85
2022/05/26 10:36:16;;;;;;;0.30;0.30;;;;;;;21.66;25.91;98166.50;4919190;29;20444;-85
2022/05/26 10:39:16;;;;;;;0.30;0.30;;;;;;;20.95;26.37;98165.44;4927873;29;20052;-83
2022/05/26 10:42:01;;;;;;;0.30;0.30;;;;;;;21.02;26.22;98149.25;4934861;29;20087;-85
2022/05/26 10:44:37;;;;;;;0.30;0.30;;;;;;;21.11;26.61;98168.38;4935315;29;20067;-85
2022/05/26 10:47:11;;;;;;;0.30;0.30;;;;;;;20.89;27.13;98153.88;4929352;29;20091;-86
2022/05/26 10:49:44;;;;;;;0.30;0.30;;;;;;;20.93;27.42;98154.00;4922842;29;20048;-84
2022/05/26 10:52:21;;;;;;;0.30;0.30;;;;;;;21.02;27.26;98154.75;4915872;29;20120;-85
2022/05/26 10:54:53;;;;;;;0.30;0.30;;;;;;;20.74;27.29;98124.31;4916249;29;20079;-85
2022/05/26 10:57:38;;;;;;;0.30;0.30;;;;;;;20.87;27.25;98133.41;4923577;29;20146;-85
2022/05/26 11:00:09;;;;;;;0.30;0.30;;;;;;;20.91;27.49;98135.13;4916549;29;20152;-84
2022/05/26 11:02:59;;;;;;;0.30;0.30;;;;;;;20.91;27.55;98126.09;4917155;29;20059;-84
2022/05/26 11:05:45;;;;;;;0.30;0.30;;;;;;;20.85;27.60;98116.47;4916856;29;20052;-87
2022/05/26 11:08:21;;;;;;;0.30;0.30;;;;;;;21.05;27.17;98126.66;4919974;29;20059;-90
2022/05/26 11:10:52;;;;;;;0.30;0.30;;;;;;;21.02;26.98;98113.59;4936197;29;20051;-86
2022/05/26 11:13:52;;;;;;;0.30;0.30;;;;;;;21.18;26.87;98108.31;4935852;29;20052;-86
2022/05/26 11:20:04;;;;;;;0.30;0.30;;;;;;;21.79;27.31;98108.53;4927667;29;20051;-86
2022/05/26 11:22:31;;;;;;;0.30;0.30;;;;;;;21.86;26.94;98105.22;4859564;29;20105;-87
2022/05/26 11:25:44;;;;;;;0.30;0.30;;;;;;;22.01;27.70;98101.03;4844485;29;20149;-88
2022/05/26 11:28:27;;;;;;;0.30;0.30;;;;;;;21.93;26.99;98094.50;4851537;29;20054;-85
2022/05/26 11:36:47;;;;;;;0.30;0.30;;;;;;;22.27;27.44;98078.72;4868467;29;20061;-86
2022/05/26 11:39:24;;;;;;;0.30;0.30;;;;;;;22.15;27.17;98073.19;4842266;29;20053;-87
2022/05/26 11:41:53;;;;;;;0.30;0.30;;;;;;;21.95;27.19;98064.75;4852175;29;20081;-89
2022/05/26 11:44:34;;;;;;;0.30;0.30;;;;;;;22.22;26.60;98070.72;4843162;29;20049;-88
2022/05/26 11:47:24;;;;;;;0.30;0.30;;;;;;;;;;4857696;29;20045;-90
2022/05/26 11:49:56;;;;;;;0.30;0.30;;;;;;;22.40;26.98;98063.03;4836753;29;20084;-87
2022/05/26 11:52:34;;;;;;;0.30;0.30;;;;;;;22.64;26.69;98053.94;4855374;29;20197;-85
2022/05/26 11:55:30;;;;;;;0.40;0.40;;;;;;;23.22;25.73;98045.38;4848425;29;20057;-86
2022/05/26 11:57:57;;;;;;;0.30;0.30;;;;;;;23.31;25.35;98038.56;4854221;29;20062;-86
2022/05/26 12:00:34;;;;;;;0.30;0.30;;;;;;;23.44;25.92;98044.03;4903422;29;20537;-85
2022/05/26 12:03:19;;;;;;;0.30;0.30;;;;;;;23.28;25.78;98033.78;4933394;29;20090;-85
2022/05/26 12:05:48;;;;;;;0.30;0.30;;;;;;;22.81;25.85;98025.34;4935013;29;20059;-88
2022/05/26 12:08:27;;;;;;;0.30;0.30;;;;;;;22.22;26.62;98024.78;4933478;29;20106;-86
2022/05/26 12:11:00;;;;;;;0.20;0.20;;;;;;;21.78;27.47;98027.28;4934586;29;20043;-85
2022/05/26 12:13:32;;;;;;;0.20;0.20;;;;;;;21.58;27.70;98028.19;4933602;29;20523;-86
2022/05/26 12:16:15;;;;;;;0.30;0.30;;;;;;;21.33;27.90;98035.53;4933920;29;20143;-86
2022/05/26 12:18:46;;;;;;;0.30;0.30;;;;;;;21.00;28.38;98026.16;4933335;29;20055;-87
2022/05/26 12:21:18;;;;;;;0.20;0.20;;;;;;;20.75;28.65;98002.53;4933161;29;20051;-85
2022/05/26 12:23:45;;;;;;;0.30;0.30;;;;;;;20.41;29.20;98001.66;4933926;29;20059;-86
2022/05/26 12:26:34;;;;;;;0.20;0.20;;;;;;;20.43;29.69;98015.00;4933686;29;20495;-86
2022/05/26 12:29:39;;;;;;;0.20;0.20;;;;;;;20.20;30.04;97990.66;4933741;29;20052;-85
2022/05/26 12:32:09;;;;;;;0.20;0.20;;;;;;;20.09;30.01;98008.63;4932960;29;20058;-86
2022/05/26 12:34:46;;;;;;;0.20;0.20;;;;;;;20.10;30.40;97977.34;4934073;29;20046;-86
2022/05/26 12:37:27;;;;;;;0.20;0.20;;;;;;;19.84;30.91;97980.25;4933946;29;20067;-86
2022/05/26 12:40:13;;;;;;;0.20;0.20;;;;;;;19.61;30.97;97982.41;4917250;29;20059;-85
2022/05/26 12:43:11;;;;;;;0.20;0.20;;;;;;;19.46;30.91;97976.34;4934190;29;20179;-86